sensor_id;sensor_type;location;lat;lon;timestamp;temperature;humidity
38726;DHT22;24474;48.906;8.808;2022-11-20T00:01:28;5.60;99.90
38726;DHT22;24474;48.906;8.808;2022-11-20T00:03:55;5.60;99.90
38726;DHT22;24474;48.906;8.808;2022-11-20T00:06:26;5.60;99.90
38726;DHT22;24474;48.906;8.808;2022-11-20T00:08:55;5.60;99.90
38726;DHT22;24474;48.906;8.808;2022-11-20T00:11:23;5.50;99.90
38726;DHT22;24474;48.906;8.808;2022-11-20T00:13:52;5.50;99.90
38726;DHT22;24474;48.906;8.808;2022-11-20T00:16:21;5.50;99.90
38726;DHT22;24474;48.906;8.808;2022-11-20T00:18:47;5.50;99.90
38726;DHT22;24474;48.906;8.808;2022-11-20T00:21:24;5.50;99.90
38726;DHT22;24474;48.906;8.808;2022-11-20T00:23:52;5.50;99.90
38726;DHT22;24474;48.906;8.808;2022-11-20T00:26:22;5.40;99.90
38726;DHT22;24474;48.906;8.808;2022-11-20T00:28:59;5.40;99.90
38726;DHT22;24474;48.906;8.808;2022-11-20T00:31:26;5.40;99.90
38726;DHT22;24474;48.906;8.808;2022-11-20T00:33:55;5.40;99.90
38726;DHT22;24474;48.906;8.808;2022-11-20T00:36:28;5.40;99.90
38726;DHT22;24474;48.906;8.808;2022-11-20T00:38:57;5.40;99.90
38726;DHT22;24474;48.906;8.808;2022-11-20T00:41:26;5.40;99.90
38726;DHT22;24474;48.906;8.808;2022-11-20T00:43:54;5.40;99.90
38726;DHT22;24474;48.906;8.808;2022-11-20T00:46:24;5.40;99.90
38726;DHT22;24474;48.906;8.808;2022-11-20T00:48:52;5.40;99.90
38726;DHT22;24474;48.906;8.808;2022-11-20T00:51:21;5.30;99.90
38726;DHT22;24474;48.906;8.808;2022-11-20T00:53:47;5.40;99.90
38726;DHT22;24474;48.906;8.808;2022-11-20T00:56:15;5.40;99.90
38726;DHT22;24474;48.906;8.808;2022-11-20T00:58:45;5.40;99.90
38726;DHT22;24474;48.906;8.808;2022-11-20T01:01:14;5.40;99.90
38726;DHT22;24474;48.906;8.808;2022-11-20T01:03:48;5.50;99.90
38726;DHT22;24474;48.906;8.808;2022-11-20T01:06:16;5.50;99.90
38726;DHT22;24474;48.906;8.808;2022-11-20T01:08:54;5.50;99.90
38726;DHT22;24474;48.906;8.808;2022-11-20T01:11:29;5.40;99.90
38726;DHT22;24474;48.906;8.808;2022-11-20T01:13:56;5.40;99.90
38726;DHT22;24474;48.906;8.808;2022-11-20T01:16:44;5.40;99.90
38726;DHT22;24474;48.906;8.808;2022-11-20T01:19:13;5.40;99.90
38726;DHT22;24474;48.906;8.808;2022-11-20T01:21:41;5.50;99.90
38726;DHT22;24474;48.906;8.808;2022-11-20T01:24:11;5.50;99.90
38726;DHT22;24474;48.906;8.808;2022-11-20T01:26:40;5.50;99.90
38726;DHT22;24474;48.906;8.808;2022-11-20T01:29:06;5.50;99.90
38726;DHT22;24474;48.906;8.808;2022-11-20T01:31:38;5.50;99.90
38726;DHT22;24474;48.906;8.808;2022-11-20T01:34:11;5.50;99.90
38726;DHT22;24474;48.906;8.808;2022-11-20T01:36:38;5.50;99.90
38726;DHT22;24474;48.906;8.808;2022-11-20T01:39:06;5.60;99.90
38726;DHT22;24474;48.906;8.808;2022-11-20T01:41:33;5.60;99.90
38726;DHT22;24474;48.906;8.808;2022-11-20T01:44:22;5.60;99.90
38726;DHT22;24474;48.906;8.808;2022-11-20T01:46:58;5.60;99.90
38726;DHT22;24474;48.906;8.808;2022-11-20T01:49:42;5.60;99.90
38726;DHT22;24474;48.906;8.808;2022-11-20T01:52:36;5.60;99.90
38726;DHT22;24474;48.906;8.808;2022-11-20T01:55:14;5.70;99.90
38726;DHT22;24474;48.906;8.808;2022-11-20T01:57:43;5.70;99.90
38726;DHT22;24474;48.906;8.808;2022-11-20T02:00:12;5.70;99.90
38726;DHT22;24474;48.906;8.808;2022-11-20T02:02:44;5.70;99.90
38726;DHT22;24474;48.906;8.808;2022-11-20T02:05:40;5.70;99.90
38726;DHT22;24474;48.906;8.808;2022-11-20T02:08:09;5.80;99.90
38726;DHT22;24474;48.906;8.808;2022-11-20T02:10:36;5.80;99.90
38726;DHT22;24474;48.906;8.808;2022-11-20T02:13:03;5.90;99.90
38726;DHT22;24474;48.906;8.808;2022-11-20T02:15:48;5.80;99.90
38726;DHT22;24474;48.906;8.808;2022-11-20T02:18:17;5.80;99.90
38726;DHT22;24474;48.906;8.808;2022-11-20T02:20:45;5.90;99.90
38726;DHT22;24474;48.906;8.808;2022-11-20T02:25:46;5.80;99.90
38726;DHT22;24474;48.906;8.808;2022-11-20T02:28:13;5.90;99.90
38726;DHT22;24474;48.906;8.808;2022-11-20T02:30:38;5.90;99.90
38726;DHT22;24474;48.906;8.808;2022-11-20T02:33:05;5.90;99.90
38726;DHT22;24474;48.906;8.808;2022-11-20T02:35:45;5.90;99.90
38726;DHT22;24474;48.906;8.808;2022-11-20T02:38:12;6.00;99.90
38726;DHT22;24474;48.906;8.808;2022-11-20T02:40:40;6.00;99.90
38726;DHT22;24474;48.906;8.808;2022-11-20T02:43:07;6.00;99.90
38726;DHT22;24474;48.906;8.808;2022-11-20T02:45:33;5.90;99.90
38726;DHT22;24474;48.906;8.808;2022-11-20T02:47:59;6.00;99.90
38726;DHT22;24474;48.906;8.808;2022-11-20T02:50:25;6.00;99.90
38726;DHT22;24474;48.906;8.808;2022-11-20T02:52:51;6.00;99.90
38726;DHT22;24474;48.906;8.808;2022-11-20T02:55:16;6.00;99.90
38726;DHT22;24474;48.906;8.808;2022-11-20T02:57:43;6.00;99.90
38726;DHT22;24474;48.906;8.808;2022-11-20T03:00:11;6.00;99.90
38726;DHT22;24474;48.906;8.808;2022-11-20T03:02:38;6.00;99.90
38726;DHT22;24474;48.906;8.808;2022-11-20T03:05:03;6.00;99.90
38726;DHT22;24474;48.906;8.808;2022-11-20T03:07:29;6.00;99.90
38726;DHT22;24474;48.906;8.808;2022-11-20T03:09:56;6.00;99.90
38726;DHT22;24474;48.906;8.808;2022-11-20T03:12:25;6.00;99.90
38726;DHT22;24474;48.906;8.808;2022-11-20T03:14:51;6.00;99.90
38726;DHT22;24474;48.906;8.808;2022-11-20T03:17:18;6.00;99.90
38726;DHT22;24474;48.906;8.808;2022-11-20T03:19:44;6.00;99.90
38726;DHT22;24474;48.906;8.808;2022-11-20T03:22:11;6.00;99.90
38726;DHT22;24474;48.906;8.808;2022-11-20T03:24:37;6.00;99.90
38726;DHT22;24474;48.906;8.808;2022-11-20T03:27:03;6.00;99.90
38726;DHT22;24474;48.906;8.808;2022-11-20T03:29:30;6.00;99.90
38726;DHT22;24474;48.906;8.808;2022-11-20T03:31:55;6.00;99.90
38726;DHT22;24474;48.906;8.808;2022-11-20T03:34:21;6.00;99.90
38726;DHT22;24474;48.906;8.808;2022-11-20T03:36:47;6.00;99.90
38726;DHT22;24474;48.906;8.808;2022-11-20T03:39:13;6.00;99.90
38726;DHT22;24474;48.906;8.808;2022-11-20T03:41:40;6.00;99.90
38726;DHT22;24474;48.906;8.808;2022-11-20T03:44:09;6.10;99.90
38726;DHT22;24474;48.906;8.808;2022-11-20T03:46:36;6.10;99.90
38726;DHT22;24474;48.906;8.808;2022-11-20T03:49:02;6.10;99.90
38726;DHT22;24474;48.906;8.808;2022-11-20T03:51:35;6.10;99.90
38726;DHT22;24474;48.906;8.808;2022-11-20T03:54:06;6.10;99.90
38726;DHT22;24474;48.906;8.808;2022-11-20T03:56:34;6.10;99.90
38726;DHT22;24474;48.906;8.808;2022-11-20T03:59:02;6.10;99.90
38726;DHT22;24474;48.906;8.808;2022-11-20T04:01:31;6.10;99.90
38726;DHT22;24474;48.906;8.808;2022-11-20T04:03:57;6.10;99.90
38726;DHT22;24474;48.906;8.808;2022-11-20T04:06:27;6.10;99.90
38726;DHT22;24474;48.906;8.808;2022-11-20T04:08:58;6.20;99.90
38726;DHT22;24474;48.906;8.808;2022-11-20T04:11:27;6.20;99.90
38726;DHT22;24474;48.906;8.808;2022-11-20T04:13:58;6.20;99.90
38726;DHT22;24474;48.906;8.808;2022-11-20T04:16:28;6.20;99.90
38726;DHT22;24474;48.906;8.808;2022-11-20T04:18:57;6.20;99.90
38726;DHT22;24474;48.906;8.808;2022-11-20T04:21:23;6.30;99.90
38726;DHT22;24474;48.906;8.808;2022-11-20T04:23:51;6.20;99.90
38726;DHT22;24474;48.906;8.808;2022-11-20T04:26:19;6.20;99.90
38726;DHT22;24474;48.906;8.808;2022-11-20T04:28:47;6.20;99.90
38726;DHT22;24474;48.906;8.808;2022-11-20T04:31:18;6.20;99.90
38726;DHT22;24474;48.906;8.808;2022-11-20T04:33:44;6.20;99.90
38726;DHT22;24474;48.906;8.808;2022-11-20T04:36:20;6.20;99.90
38726;DHT22;24474;48.906;8.808;2022-11-20T04:38:49;6.20;99.90
38726;DHT22;24474;48.906;8.808;2022-11-20T04:41:17;6.30;99.90
38726;DHT22;24474;48.906;8.808;2022-11-20T04:43:49;6.20;99.90
38726;DHT22;24474;48.906;8.808;2022-11-20T04:46:15;6.30;99.90
38726;DHT22;24474;48.906;8.808;2022-11-20T04:48:42;6.20;99.90
38726;DHT22;24474;48.906;8.808;2022-11-20T04:51:09;6.30;99.90
38726;DHT22;24474;48.906;8.808;2022-11-20T04:53:35;6.30;99.90
38726;DHT22;24474;48.906;8.808;2022-11-20T04:56:04;6.30;99.90
38726;DHT22;24474;48.906;8.808;2022-11-20T04:58:33;6.30;99.90
38726;DHT22;24474;48.906;8.808;2022-11-20T05:01:04;6.30;99.90
38726;DHT22;24474;48.906;8.808;2022-11-20T05:03:31;6.30;99.90
38726;DHT22;24474;48.906;8.808;2022-11-20T05:05:59;6.30;99.90
38726;DHT22;24474;48.906;8.808;2022-11-20T05:08:26;6.30;99.90
38726;DHT22;24474;48.906;8.808;2022-11-20T05:10:52;6.30;99.90
38726;DHT22;24474;48.906;8.808;2022-11-20T05:13:17;6.30;99.90
38726;DHT22;24474;48.906;8.808;2022-11-20T05:15:44;6.40;99.90
38726;DHT22;24474;48.906;8.808;2022-11-20T05:18:11;6.40;99.90
38726;DHT22;24474;48.906;8.808;2022-11-20T05:20:38;6.40;99.90
38726;DHT22;24474;48.906;8.808;2022-11-20T05:23:05;6.40;99.90
38726;DHT22;24474;48.906;8.808;2022-11-20T05:25:30;6.40;99.90
38726;DHT22;24474;48.906;8.808;2022-11-20T05:27:57;6.40;99.90
38726;DHT22;24474;48.906;8.808;2022-11-20T05:30:23;6.40;99.90
38726;DHT22;24474;48.906;8.808;2022-11-20T05:32:50;6.40;99.90
38726;DHT22;24474;48.906;8.808;2022-11-20T05:35:15;6.40;99.90
38726;DHT22;24474;48.906;8.808;2022-11-20T05:37:41;6.40;99.90
38726;DHT22;24474;48.906;8.808;2022-11-20T05:40:07;6.40;99.90
38726;DHT22;24474;48.906;8.808;2022-11-20T05:42:33;6.40;99.90
38726;DHT22;24474;48.906;8.808;2022-11-20T05:45:03;6.40;99.90
38726;DHT22;24474;48.906;8.808;2022-11-20T05:47:33;6.40;99.90
38726;DHT22;24474;48.906;8.808;2022-11-20T05:49:59;6.40;99.90
38726;DHT22;24474;48.906;8.808;2022-11-20T05:52:29;6.40;99.90
38726;DHT22;24474;48.906;8.808;2022-11-20T05:54:55;6.50;99.90
38726;DHT22;24474;48.906;8.808;2022-11-20T05:57:21;6.40;99.90
38726;DHT22;24474;48.906;8.808;2022-11-20T05:59:46;6.40;99.90
38726;DHT22;24474;48.906;8.808;2022-11-20T06:02:13;6.40;99.90
38726;DHT22;24474;48.906;8.808;2022-11-20T06:04:41;6.40;99.90
38726;DHT22;24474;48.906;8.808;2022-11-20T06:07:06;6.40;99.90
38726;DHT22;24474;48.906;8.808;2022-11-20T06:09:32;6.40;99.90
38726;DHT22;24474;48.906;8.808;2022-11-20T06:11:58;6.40;99.90
38726;DHT22;24474;48.906;8.808;2022-11-20T06:14:25;6.40;99.90
38726;DHT22;24474;48.906;8.808;2022-11-20T06:16:52;6.40;99.90
38726;DHT22;24474;48.906;8.808;2022-11-20T06:19:18;6.40;99.90
38726;DHT22;24474;48.906;8.808;2022-11-20T06:21:44;6.40;99.90
38726;DHT22;24474;48.906;8.808;2022-11-20T06:24:11;6.40;99.90
38726;DHT22;24474;48.906;8.808;2022-11-20T06:26:37;6.40;99.90
38726;DHT22;24474;48.906;8.808;2022-11-20T06:29:05;6.40;99.90
38726;DHT22;24474;48.906;8.808;2022-11-20T06:31:33;6.40;99.90
38726;DHT22;24474;48.906;8.808;2022-11-20T06:34:01;6.50;99.90
38726;DHT22;24474;48.906;8.808;2022-11-20T06:36:26;6.50;99.90
38726;DHT22;24474;48.906;8.808;2022-11-20T06:38:53;6.50;99.90
38726;DHT22;24474;48.906;8.808;2022-11-20T06:41:20;6.50;99.90
38726;DHT22;24474;48.906;8.808;2022-11-20T06:43:47;6.50;99.90
38726;DHT22;24474;48.906;8.808;2022-11-20T06:46:14;6.60;99.90
38726;DHT22;24474;48.906;8.808;2022-11-20T06:48:44;6.50;99.90
38726;DHT22;24474;48.906;8.808;2022-11-20T06:51:10;6.50;99.90
38726;DHT22;24474;48.906;8.808;2022-11-20T06:53:36;6.60;99.90
38726;DHT22;24474;48.906;8.808;2022-11-20T06:56:04;6.60;99.90
38726;DHT22;24474;48.906;8.808;2022-11-20T06:58:33;6.60;99.90
38726;DHT22;24474;48.906;8.808;2022-11-20T07:01:01;6.60;99.90
38726;DHT22;24474;48.906;8.808;2022-11-20T07:03:30;6.60;99.90
38726;DHT22;24474;48.906;8.808;2022-11-20T07:05:58;6.60;99.90
38726;DHT22;24474;48.906;8.808;2022-11-20T07:08:25;6.50;99.90
38726;DHT22;24474;48.906;8.808;2022-11-20T07:10:52;6.60;99.90
38726;DHT22;24474;48.906;8.808;2022-11-20T07:13:18;6.60;99.90
38726;DHT22;24474;48.906;8.808;2022-11-20T07:15:45;6.60;99.90
38726;DHT22;24474;48.906;8.808;2022-11-20T07:18:10;6.60;99.90
38726;DHT22;24474;48.906;8.808;2022-11-20T07:20:38;6.60;99.90
38726;DHT22;24474;48.906;8.808;2022-11-20T07:23:03;6.60;99.90
38726;DHT22;24474;48.906;8.808;2022-11-20T07:25:29;6.60;99.90
38726;DHT22;24474;48.906;8.808;2022-11-20T07:28:00;6.50;99.90
38726;DHT22;24474;48.906;8.808;2022-11-20T07:30:29;6.50;99.90
38726;DHT22;24474;48.906;8.808;2022-11-20T07:32:56;6.60;99.90
38726;DHT22;24474;48.906;8.808;2022-11-20T07:35:24;6.60;99.90
38726;DHT22;24474;48.906;8.808;2022-11-20T07:37:50;6.60;99.90
38726;DHT22;24474;48.906;8.808;2022-11-20T07:40:16;6.70;99.90
38726;DHT22;24474;48.906;8.808;2022-11-20T07:42:53;6.60;99.90
38726;DHT22;24474;48.906;8.808;2022-11-20T07:45:23;6.60;99.90
38726;DHT22;24474;48.906;8.808;2022-11-20T07:47:50;6.70;99.90
38726;DHT22;24474;48.906;8.808;2022-11-20T07:50:18;6.60;99.90
38726;DHT22;24474;48.906;8.808;2022-11-20T07:52:44;6.60;99.90
38726;DHT22;24474;48.906;8.808;2022-11-20T07:55:10;6.70;99.90
38726;DHT22;24474;48.906;8.808;2022-11-20T07:57:37;6.80;99.90
38726;DHT22;24474;48.906;8.808;2022-11-20T08:00:10;6.80;99.90
38726;DHT22;24474;48.906;8.808;2022-11-20T08:02:41;6.70;99.90
38726;DHT22;24474;48.906;8.808;2022-11-20T08:05:08;6.80;99.90
38726;DHT22;24474;48.906;8.808;2022-11-20T08:07:42;6.70;99.90
38726;DHT22;24474;48.906;8.808;2022-11-20T08:10:12;6.70;99.90
38726;DHT22;24474;48.906;8.808;2022-11-20T08:12:51;6.70;99.90
38726;DHT22;24474;48.906;8.808;2022-11-20T08:15:39;6.70;99.90
38726;DHT22;24474;48.906;8.808;2022-11-20T08:18:10;6.70;99.90
38726;DHT22;24474;48.906;8.808;2022-11-20T08:20:37;6.70;99.90
38726;DHT22;24474;48.906;8.808;2022-11-20T08:23:05;6.70;99.90
38726;DHT22;24474;48.906;8.808;2022-11-20T08:25:35;6.70;99.90
38726;DHT22;24474;48.906;8.808;2022-11-20T08:28:05;6.80;99.90
38726;DHT22;24474;48.906;8.808;2022-11-20T08:30:36;6.80;99.90
38726;DHT22;24474;48.906;8.808;2022-11-20T08:33:06;6.80;99.90
38726;DHT22;24474;48.906;8.808;2022-11-20T08:35:35;6.80;99.90
38726;DHT22;24474;48.906;8.808;2022-11-20T08:38:04;6.80;99.90
38726;DHT22;24474;48.906;8.808;2022-11-20T08:40:31;6.80;99.90
38726;DHT22;24474;48.906;8.808;2022-11-20T08:42:57;6.80;99.90
38726;DHT22;24474;48.906;8.808;2022-11-20T08:45:24;6.90;99.90
38726;DHT22;24474;48.906;8.808;2022-11-20T08:47:49;6.90;99.90
38726;DHT22;24474;48.906;8.808;2022-11-20T08:50:16;6.90;99.90
38726;DHT22;24474;48.906;8.808;2022-11-20T08:52:42;6.90;99.90
38726;DHT22;24474;48.906;8.808;2022-11-20T08:55:09;6.90;99.90
38726;DHT22;24474;48.906;8.808;2022-11-20T08:57:37;6.90;99.90
38726;DHT22;24474;48.906;8.808;2022-11-20T09:00:05;7.00;99.90
38726;DHT22;24474;48.906;8.808;2022-11-20T09:02:32;7.00;99.90
38726;DHT22;24474;48.906;8.808;2022-11-20T09:04:58;7.00;99.90
38726;DHT22;24474;48.906;8.808;2022-11-20T09:07:23;6.90;99.90
38726;DHT22;24474;48.906;8.808;2022-11-20T09:09:52;7.00;99.90
38726;DHT22;24474;48.906;8.808;2022-11-20T09:12:17;7.00;99.90
38726;DHT22;24474;48.906;8.808;2022-11-20T09:14:44;7.00;99.90
38726;DHT22;24474;48.906;8.808;2022-11-20T09:17:10;7.10;99.90
38726;DHT22;24474;48.906;8.808;2022-11-20T09:19:40;7.00;99.90
38726;DHT22;24474;48.906;8.808;2022-11-20T09:22:07;7.00;99.90
38726;DHT22;24474;48.906;8.808;2022-11-20T09:24:33;7.00;99.90
38726;DHT22;24474;48.906;8.808;2022-11-20T09:27:04;7.00;99.90
38726;DHT22;24474;48.906;8.808;2022-11-20T09:29:33;7.00;99.90
38726;DHT22;24474;48.906;8.808;2022-11-20T09:31:59;7.00;99.90
38726;DHT22;24474;48.906;8.808;2022-11-20T09:34:26;7.00;99.90
38726;DHT22;24474;48.906;8.808;2022-11-20T09:36:53;7.00;99.90
38726;DHT22;24474;48.906;8.808;2022-11-20T09:39:23;7.10;99.90
38726;DHT22;24474;48.906;8.808;2022-11-20T09:42:14;7.10;99.90
38726;DHT22;24474;48.906;8.808;2022-11-20T09:45:05;7.00;99.90
38726;DHT22;24474;48.906;8.808;2022-11-20T09:50:41;7.00;99.90
38726;DHT22;24474;48.906;8.808;2022-11-20T09:55:46;6.90;99.90
38726;DHT22;24474;48.906;8.808;2022-11-20T10:01:21;6.90;99.90
38726;DHT22;24474;48.906;8.808;2022-11-20T10:17:59;6.80;99.90
38726;DHT22;24474;48.906;8.808;2022-11-20T10:20:47;6.80;99.90
38726;DHT22;24474;48.906;8.808;2022-11-20T10:23:40;6.80;99.90
38726;DHT22;24474;48.906;8.808;2022-11-20T10:26:27;6.80;99.90
38726;DHT22;24474;48.906;8.808;2022-11-20T10:29:16;6.80;99.90
38726;DHT22;24474;48.906;8.808;2022-11-20T10:31:45;6.90;99.90
38726;DHT22;24474;48.906;8.808;2022-11-20T10:34:26;6.90;99.90
38726;DHT22;24474;48.906;8.808;2022-11-20T10:37:16;6.90;99.90
38726;DHT22;24474;48.906;8.808;2022-11-20T10:42:44;6.90;99.90
38726;DHT22;24474;48.906;8.808;2022-11-20T10:48:17;6.90;99.90
38726;DHT22;24474;48.906;8.808;2022-11-20T11:08:16;7.30;99.90
38726;DHT22;24474;48.906;8.808;2022-11-20T11:11:02;7.30;99.90
38726;DHT22;24474;48.906;8.808;2022-11-20T11:13:35;7.30;99.90
38726;DHT22;24474;48.906;8.808;2022-11-20T11:16:03;7.30;99.90
38726;DHT22;24474;48.906;8.808;2022-11-20T11:18:30;7.30;99.90
38726;DHT22;24474;48.906;8.808;2022-11-20T11:21:00;7.30;99.90
38726;DHT22;24474;48.906;8.808;2022-11-20T11:23:34;7.40;99.90
38726;DHT22;24474;48.906;8.808;2022-11-20T11:26:05;7.40;99.90
38726;DHT22;24474;48.906;8.808;2022-11-20T11:28:31;7.40;99.90
38726;DHT22;24474;48.906;8.808;2022-11-20T11:30:59;7.50;99.90
38726;DHT22;24474;48.906;8.808;2022-11-20T11:33:27;7.50;99.90
38726;DHT22;24474;48.906;8.808;2022-11-20T11:36:04;7.60;99.90
38726;DHT22;24474;48.906;8.808;2022-11-20T11:38:43;7.70;99.90
38726;DHT22;24474;48.906;8.808;2022-11-20T11:41:18;7.70;99.90
38726;DHT22;24474;48.906;8.808;2022-11-20T11:43:58;7.70;99.90
38726;DHT22;24474;48.906;8.808;2022-11-20T11:46:52;7.70;99.90
38726;DHT22;24474;48.906;8.808;2022-11-20T11:49:19;7.80;99.90
38726;DHT22;24474;48.906;8.808;2022-11-20T12:00:08;8.10;99.90
38726;DHT22;24474;48.906;8.808;2022-11-20T12:05:37;8.30;99.90
38726;DHT22;24474;48.906;8.808;2022-11-20T12:08:23;8.30;99.90
38726;DHT22;24474;48.906;8.808;2022-11-20T12:16:04;8.20;99.90
38726;DHT22;24474;48.906;8.808;2022-11-20T12:18:30;8.20;99.90
38726;DHT22;24474;48.906;8.808;2022-11-20T12:26:52;8.30;99.90
38726;DHT22;24474;48.906;8.808;2022-11-20T12:29:32;8.30;99.90
38726;DHT22;24474;48.906;8.808;2022-11-20T12:37:53;8.50;99.90
38726;DHT22;24474;48.906;8.808;2022-11-20T12:43:29;8.60;99.90
38726;DHT22;24474;48.906;8.808;2022-11-20T12:49:26;8.70;99.90
38726;DHT22;24474;48.906;8.808;2022-11-20T12:58:15;8.60;99.90
38726;DHT22;24474;48.906;8.808;2022-11-20T13:01:04;8.50;99.90
38726;DHT22;24474;48.906;8.808;2022-11-20T13:03:42;8.50;99.90
38726;DHT22;24474;48.906;8.808;2022-11-20T13:06:15;8.50;99.90
38726;DHT22;24474;48.906;8.808;2022-11-20T13:08:48;8.40;99.90
38726;DHT22;24474;48.906;8.808;2022-11-20T13:11:38;8.40;99.90
38726;DHT22;24474;48.906;8.808;2022-11-20T13:19:39;8.30;99.90
38726;DHT22;24474;48.906;8.808;2022-11-20T13:22:11;8.30;99.90
38726;DHT22;24474;48.906;8.808;2022-11-20T13:24:38;8.20;99.90
38726;DHT22;24474;48.906;8.808;2022-11-20T13:27:20;8.20;99.90
38726;DHT22;24474;48.906;8.808;2022-11-20T13:30:22;8.20;99.90
38726;DHT22;24474;48.906;8.808;2022-11-20T13:32:55;8.10;99.90
38726;DHT22;24474;48.906;8.808;2022-11-20T13:38:13;8.20;99.90
38726;DHT22;24474;48.906;8.808;2022-11-20T13:41:01;8.30;99.90
38726;DHT22;24474;48.906;8.808;2022-11-20T13:43:51;8.20;99.90
38726;DHT22;24474;48.906;8.808;2022-11-20T13:46:17;8.20;99.90
38726;DHT22;24474;48.906;8.808;2022-11-20T13:49:05;8.20;99.90
38726;DHT22;24474;48.906;8.808;2022-11-20T13:51:50;8.20;99.90
38726;DHT22;24474;48.906;8.808;2022-11-20T13:59:58;8.10;99.90
38726;DHT22;24474;48.906;8.808;2022-11-20T14:02:29;8.10;99.90
38726;DHT22;24474;48.906;8.808;2022-11-20T14:04:57;8.10;99.90
38726;DHT22;24474;48.906;8.808;2022-11-20T14:07:31;8.00;99.90
38726;DHT22;24474;48.906;8.808;2022-11-20T14:09:57;8.00;99.90
38726;DHT22;24474;48.906;8.808;2022-11-20T14:12:31;8.00;99.90
38726;DHT22;24474;48.906;8.808;2022-11-20T14:14:58;8.00;99.90
38726;DHT22;24474;48.906;8.808;2022-11-20T14:17:31;8.00;99.90
38726;DHT22;24474;48.906;8.808;2022-11-20T14:20:11;7.90;99.90
38726;DHT22;24474;48.906;8.808;2022-11-20T14:22:39;7.90;99.90
38726;DHT22;24474;48.906;8.808;2022-11-20T14:27:43;7.90;99.90
38726;DHT22;24474;48.906;8.808;2022-11-20T14:30:18;7.80;99.90
38726;DHT22;24474;48.906;8.808;2022-11-20T14:33:02;7.80;99.90
38726;DHT22;24474;48.906;8.808;2022-11-20T14:35:37;7.80;99.90
38726;DHT22;24474;48.906;8.808;2022-11-20T14:41:24;7.70;99.90
38726;DHT22;24474;48.906;8.808;2022-11-20T14:43:58;7.80;99.90
38726;DHT22;24474;48.906;8.808;2022-11-20T14:46:27;7.70;99.90
38726;DHT22;24474;48.906;8.808;2022-11-20T14:48:56;7.70;99.90
38726;DHT22;24474;48.906;8.808;2022-11-20T14:53:53;7.70;99.90
38726;DHT22;24474;48.906;8.808;2022-11-20T14:56:27;7.60;99.90
38726;DHT22;24474;48.906;8.808;2022-11-20T14:59:02;7.70;99.90
38726;DHT22;24474;48.906;8.808;2022-11-20T15:01:33;7.60;99.90
38726;DHT22;24474;48.906;8.808;2022-11-20T15:04:06;7.60;99.90
38726;DHT22;24474;48.906;8.808;2022-11-20T15:06:33;7.60;99.90
38726;DHT22;24474;48.906;8.808;2022-11-20T15:09:02;7.50;99.90
38726;DHT22;24474;48.906;8.808;2022-11-20T15:11:33;7.50;99.90
38726;DHT22;24474;48.906;8.808;2022-11-20T15:14:05;7.40;99.90
38726;DHT22;24474;48.906;8.808;2022-11-20T15:16:32;7.40;99.90
38726;DHT22;24474;48.906;8.808;2022-11-20T15:19:00;7.40;99.90
38726;DHT22;24474;48.906;8.808;2022-11-20T15:21:28;7.40;99.90
38726;DHT22;24474;48.906;8.808;2022-11-20T15:23:54;7.30;99.90
38726;DHT22;24474;48.906;8.808;2022-11-20T15:26:24;7.30;99.90
38726;DHT22;24474;48.906;8.808;2022-11-20T15:28:51;7.30;99.90
38726;DHT22;24474;48.906;8.808;2022-11-20T15:31:19;7.20;99.90
38726;DHT22;24474;48.906;8.808;2022-11-20T15:33:45;7.20;99.90
38726;DHT22;24474;48.906;8.808;2022-11-20T15:36:12;7.20;99.90
38726;DHT22;24474;48.906;8.808;2022-11-20T15:38:39;7.20;99.90
38726;DHT22;24474;48.906;8.808;2022-11-20T15:41:05;7.20;99.90
38726;DHT22;24474;48.906;8.808;2022-11-20T15:43:30;7.20;99.90
38726;DHT22;24474;48.906;8.808;2022-11-20T15:46:03;7.20;99.90
38726;DHT22;24474;48.906;8.808;2022-11-20T15:48:42;7.20;99.90
38726;DHT22;24474;48.906;8.808;2022-11-20T15:53:56;7.10;99.90
38726;DHT22;24474;48.906;8.808;2022-11-20T15:56:23;7.10;99.90
38726;DHT22;24474;48.906;8.808;2022-11-20T15:58:49;7.10;99.90
38726;DHT22;24474;48.906;8.808;2022-11-20T16:01:17;7.10;99.90
38726;DHT22;24474;48.906;8.808;2022-11-20T16:03:44;7.10;99.90
38726;DHT22;24474;48.906;8.808;2022-11-20T16:06:12;7.00;99.90
38726;DHT22;24474;48.906;8.808;2022-11-20T16:08:39;7.10;99.90
38726;DHT22;24474;48.906;8.808;2022-11-20T16:11:05;7.10;99.90
38726;DHT22;24474;48.906;8.808;2022-11-20T16:13:32;7.00;99.90
38726;DHT22;24474;48.906;8.808;2022-11-20T16:16:26;7.00;99.90
38726;DHT22;24474;48.906;8.808;2022-11-20T16:18:57;7.00;99.90
38726;DHT22;24474;48.906;8.808;2022-11-20T16:21:27;7.00;99.90
38726;DHT22;24474;48.906;8.808;2022-11-20T16:24:02;7.00;99.90
38726;DHT22;24474;48.906;8.808;2022-11-20T16:26:29;7.00;99.90
38726;DHT22;24474;48.906;8.808;2022-11-20T16:29:14;6.90;99.90
38726;DHT22;24474;48.906;8.808;2022-11-20T16:31:43;7.00;99.90
38726;DHT22;24474;48.906;8.808;2022-11-20T16:34:08;6.90;99.90
38726;DHT22;24474;48.906;8.808;2022-11-20T16:36:34;7.00;99.90
38726;DHT22;24474;48.906;8.808;2022-11-20T16:39:02;6.90;99.90
38726;DHT22;24474;48.906;8.808;2022-11-20T16:41:30;6.90;99.90
38726;DHT22;24474;48.906;8.808;2022-11-20T16:43:58;6.90;99.90
38726;DHT22;24474;48.906;8.808;2022-11-20T16:46:26;6.90;99.90
38726;DHT22;24474;48.906;8.808;2022-11-20T16:49:01;6.90;99.90
38726;DHT22;24474;48.906;8.808;2022-11-20T16:51:28;6.90;99.90
38726;DHT22;24474;48.906;8.808;2022-11-20T16:53:54;6.90;99.90
38726;DHT22;24474;48.906;8.808;2022-11-20T16:56:25;6.90;99.90
38726;DHT22;24474;48.906;8.808;2022-11-20T16:58:52;6.90;99.90
38726;DHT22;24474;48.906;8.808;2022-11-20T17:01:19;6.80;99.90
38726;DHT22;24474;48.906;8.808;2022-11-20T17:03:53;6.80;99.90
38726;DHT22;24474;48.906;8.808;2022-11-20T17:06:21;6.80;99.90
38726;DHT22;24474;48.906;8.808;2022-11-20T17:08:47;6.90;99.90
38726;DHT22;24474;48.906;8.808;2022-11-20T17:11:16;6.80;99.90
38726;DHT22;24474;48.906;8.808;2022-11-20T17:13:43;6.90;99.90
38726;DHT22;24474;48.906;8.808;2022-11-20T17:16:11;6.80;99.90
38726;DHT22;24474;48.906;8.808;2022-11-20T17:18:37;6.80;99.90
38726;DHT22;24474;48.906;8.808;2022-11-20T17:21:04;6.80;99.90
38726;DHT22;24474;48.906;8.808;2022-11-20T17:23:38;6.80;99.90
38726;DHT22;24474;48.906;8.808;2022-11-20T17:26:09;6.80;99.90
38726;DHT22;24474;48.906;8.808;2022-11-20T17:28:36;6.80;99.90
38726;DHT22;24474;48.906;8.808;2022-11-20T17:31:05;6.80;99.90
38726;DHT22;24474;48.906;8.808;2022-11-20T17:33:32;6.70;99.90
38726;DHT22;24474;48.906;8.808;2022-11-20T17:35:58;6.70;99.90
38726;DHT22;24474;48.906;8.808;2022-11-20T17:38:23;6.80;99.90
38726;DHT22;24474;48.906;8.808;2022-11-20T17:40:49;6.70;99.90
38726;DHT22;24474;48.906;8.808;2022-11-20T17:43:16;6.70;99.90
38726;DHT22;24474;48.906;8.808;2022-11-20T17:45:43;6.80;99.90
38726;DHT22;24474;48.906;8.808;2022-11-20T17:48:10;6.70;99.90
38726;DHT22;24474;48.906;8.808;2022-11-20T17:50:36;6.80;99.90
38726;DHT22;24474;48.906;8.808;2022-11-20T17:53:01;6.70;99.90
38726;DHT22;24474;48.906;8.808;2022-11-20T17:55:27;6.70;99.90
38726;DHT22;24474;48.906;8.808;2022-11-20T17:58:13;6.80;99.90